Time;durP1;ratioP1;P1;durP2;ratioP2;P2;SDS_P1;SDS_P2;PMS_P1;PMS_P2;Temp;Humidity;BMP_temperature;BMP_pressure;BME280_temperature;BME280_humidity;BME280_pressure;Samples;Min_cycle;Max_cycle;Signal;HPM_P1;HPM_P2
2023/12/18 00:02:08;;;;;;;13.80;5.93;;;;;;;;;;6208708;23;20195;-84
2023/12/18 00:04:39;;;;;;;9.07;6.20;;;;;;;;;;6211265;23;20170;-84
2023/12/18 00:07:12;;;;;;;15.57;6.60;;;;;;;;;;6214592;23;20430;-83
2023/12/18 00:09:49;;;;;;;7.80;5.57;;;;;;;;;;6214349;23;20167;-84
2023/12/18 00:12:42;;;;;;;11.97;5.87;;;;;;;;;;6206620;23;20594;-86
2023/12/18 00:15:13;;;;;;;6.57;3.60;;;;;;;;;;6207704;23;20505;-83
2023/12/18 00:17:43;;;;;;;10.80;5.83;;;;;;;;;;6208263;23;20175;-84
2023/12/18 00:20:16;;;;;;;13.20;4.80;;;;;;;;;;6210728;23;20164;-83
2023/12/18 00:22:51;;;;;;;7.80;5.13;;;;;;;;;;6207802;23;20171;-84
2023/12/18 00:25:24;;;;;;;7.20;4.37;;;;;;;;;;6208086;23;20186;-84
2023/12/18 00:27:55;;;;;;;11.13;4.63;;;;;;;;;;6209411;23;20178;-85
2023/12/18 00:30:26;;;;;;;7.27;3.83;;;;;;;;;;6210741;23;20164;-84
2023/12/18 00:32:55;;;;;;;8.70;5.20;;;;;;;;;;6208645;23;20187;-82
2023/12/18 00:35:29;;;;;;;9.63;4.87;;;;;;;;;;6207681;23;20163;-82
2023/12/18 00:38:05;;;;;;;12.33;5.50;;;;;;;;;;6207582;23;20415;-85
2023/12/18 00:40:36;;;;;;;5.47;4.73;;;;;;;;;;6208810;23;20625;-83
2023/12/18 00:43:07;;;;;;;12.87;5.40;;;;;;;;;;6208292;23;20653;-84
2023/12/18 00:45:39;;;;;;;7.73;5.47;;;;;;;;;;6209838;23;20463;-84
2023/12/18 00:48:16;;;;;;;9.20;5.83;;;;;;;;;;6208124;23;20528;-84
2023/12/18 00:50:48;;;;;;;8.63;5.73;;;;;;;;;;6210185;23;20170;-84
2023/12/18 00:53:18;;;;;;;12.97;6.30;;;;;;;;;;6208433;23;20168;-84
2023/12/18 00:55:51;;;;;;;11.90;5.30;;;;;;;;;;6207958;23;20167;-84
2023/12/18 00:58:21;;;;;;;8.47;5.30;;;;;;;;;;6210562;23;20178;-84
2023/12/18 01:00:55;;;;;;;13.60;4.43;;;;;;;;;;6208725;23;20664;-84
2023/12/18 01:03:35;;;;;;;6.30;5.67;;;;;;;;;;6208016;23;20168;-84
2023/12/18 01:06:08;;;;;;;7.33;4.23;;;;;;;;;;6208564;23;20221;-83
2023/12/18 01:08:37;;;;;;;8.93;5.87;;;;;;;;;;6208358;23;20551;-83
2023/12/18 01:11:07;;;;;;;8.53;5.23;;;;;;;;;;6208726;23;20178;-83
2023/12/18 01:13:37;;;;;;;8.97;4.73;;;;;;;;;;6208763;23;20239;-84
2023/12/18 01:16:07;;;;;;;11.90;7.30;;;;;;;;;;6207382;23;20289;-83
2023/12/18 01:18:39;;;;;;;11.00;6.07;;;;;;;;;;6207408;23;20593;-82
2023/12/18 01:21:09;;;;;;;9.77;4.97;;;;;;;;;;6207835;23;20195;-83
2023/12/18 01:23:42;;;;;;;7.53;4.57;;;;;;;;;;6208287;23;20167;-83
2023/12/18 01:26:13;;;;;;;14.43;4.93;;;;;;;;;;6207031;23;20175;-85
2023/12/18 01:28:45;;;;;;;5.83;5.33;;;;;;;;;;6209852;23;20645;-83
2023/12/18 01:31:22;;;;;;;11.40;5.43;;;;;;;;;;6209912;23;20237;-83
2023/12/18 01:33:54;;;;;;;9.73;5.73;;;;;;;;;;6210138;23;20266;-82
2023/12/18 01:36:27;;;;;;;17.03;7.77;;;;;;;;;;6208099;23;20195;-84
2023/12/18 01:39:04;;;;;;;8.37;4.93;;;;;;;;;;6208508;23;20214;-84
2023/12/18 01:41:38;;;;;;;13.23;5.60;;;;;;;;;;6207160;23;20199;-83
2023/12/18 01:44:23;;;;;;;10.90;6.37;;;;;;;;;;6209987;23;20178;-82
2023/12/18 01:46:54;;;;;;;12.47;7.23;;;;;;;;;;6210015;23;20171;-84
2023/12/18 01:49:32;;;;;;;7.70;6.30;;;;;;;;;;6206653;23;20194;-83
2023/12/18 01:52:04;;;;;;;13.37;7.47;;;;;;;;;;6208252;23;20276;-84
2023/12/18 01:54:38;;;;;;;13.83;7.20;;;;;;;;;;6209111;23;20254;-84
2023/12/18 01:57:10;;;;;;;13.17;5.77;;;;;;;;;;6209196;23;20613;-84
2023/12/18 01:59:40;;;;;;;6.70;4.63;;;;;;;;;;6209604;23;20429;-85
2023/12/18 02:02:15;;;;;;;9.23;4.73;;;;;;;;;;6209020;23;20191;-84
2023/12/18 02:04:49;;;;;;;15.27;5.30;;;;;;;;;;6210093;23;20163;-84
2023/12/18 02:07:23;;;;;;;7.10;5.27;;;;;;;;;;6208286;23;20348;-83
2023/12/18 02:09:55;;;;;;;9.60;6.67;;;;;;;;;;6206324;23;20251;-83
2023/12/18 02:12:26;;;;;;;9.20;5.77;;;;;;;;;;6208341;23;20464;-83
2023/12/18 02:15:00;;;;;;;7.40;6.23;;;;;;;;;;6209700;23;20307;-82
2023/12/18 02:17:32;;;;;;;12.43;6.20;;;;;;;;;;6208284;23;20174;-84
2023/12/18 02:20:11;;;;;;;7.33;4.80;;;;;;;;;;6207919;23;20187;-84
2023/12/18 02:22:53;;;;;;;8.33;4.43;;;;;;;;;;6207810;23;20269;-84
2023/12/18 02:25:24;;;;;;;5.50;4.63;;;;;;;;;;6208599;23;20163;-83
2023/12/18 02:27:57;;;;;;;7.20;5.37;;;;;;;;;;6207466;23;20167;-84
2023/12/18 02:30:36;;;;;;;8.10;6.23;;;;;;;;;;6208151;23;20175;-83
2023/12/18 02:33:10;;;;;;;8.50;5.80;;;;;;;;;;6208439;23;20274;-85
2023/12/18 02:35:45;;;;;;;7.70;5.20;;;;;;;;;;6209566;23;20623;-83
2023/12/18 02:38:18;;;;;;;11.53;6.33;;;;;;;;;;6211613;23;20657;-83
2023/12/18 02:40:53;;;;;;;14.27;6.03;;;;;;;;;;6225752;23;20193;-83
2023/12/18 02:43:23;;;;;;;9.90;4.93;;;;;;;;;;6225776;23;20233;-82
2023/12/18 02:45:56;;;;;;;8.50;5.67;;;;;;;;;;6210247;23;20175;-85
2023/12/18 02:48:27;;;;;;;9.60;5.47;;;;;;;;;;6207959;23;20167;-84
2023/12/18 02:50:57;;;;;;;8.23;6.03;;;;;;;;;;6207357;23;20609;-84
2023/12/18 02:53:32;;;;;;;9.93;6.23;;;;;;;;;;6207890;23;20171;-83
2023/12/18 02:56:20;;;;;;;6.47;5.33;;;;;;;;;;6211608;23;20586;-84
2023/12/18 02:58:51;;;;;;;13.33;7.87;;;;;;;;;;6217114;23;20270;-84
2023/12/18 03:01:24;;;;;;;10.67;6.50;;;;;;;;;;6221683;23;20176;-83
2023/12/18 03:03:59;;;;;;;12.23;7.07;;;;;;;;;;6233335;23;20179;-82
2023/12/18 03:06:29;;;;;;;8.10;5.90;;;;;;;;;;6214478;23;20167;-82
2023/12/18 03:09:04;;;;;;;13.00;7.10;;;;;;;;;;6209142;23;20241;-83
2023/12/18 03:11:37;;;;;;;11.07;6.53;;;;;;;;;;6209417;23;20194;-84
2023/12/18 03:14:10;;;;;;;9.13;6.73;;;;;;;;;;6209195;23;20612;-84
2023/12/18 03:16:41;;;;;;;17.53;9.67;;;;;;;;;;6207135;23;20203;-83
2023/12/18 03:19:11;;;;;;;15.53;8.47;;;;;;;;;;6207668;23;20731;-83
2023/12/18 03:21:44;;;;;;;13.07;5.83;;;;;;;;;;6207617;23;20228;-82
2023/12/18 03:24:16;;;;;;;15.63;6.63;;;;;;;;;;6207296;23;20178;-85
2023/12/18 03:26:45;;;;;;;9.63;7.00;;;;;;;;;;6206176;23;20218;-84
2023/12/18 03:29:18;;;;;;;11.30;6.87;;;;;;;;;;6207154;23;20217;-83
2023/12/18 03:31:50;;;;;;;13.83;7.13;;;;;;;;;;6207405;23;20654;-82
2023/12/18 03:34:24;;;;;;;10.50;6.73;;;;;;;;;;6208366;23;20262;-83
2023/12/18 03:36:55;;;;;;;16.37;8.50;;;;;;;;;;6207305;23;20245;-86
2023/12/18 03:39:27;;;;;;;10.77;7.00;;;;;;;;;;6207704;23;20900;-84
2023/12/18 03:41:57;;;;;;;11.57;6.87;;;;;;;;;;6207133;23;20195;-85
2023/12/18 03:44:32;;;;;;;20.53;8.00;;;;;;;;;;6209370;23;20164;-84
2023/12/18 03:47:03;;;;;;;10.77;7.53;;;;;;;;;;6207870;23;20254;-83
2023/12/18 03:49:33;;;;;;;7.03;5.80;;;;;;;;;;6209085;23;20243;-83
2023/12/18 03:52:07;;;;;;;12.60;6.90;;;;;;;;;;6208271;23;20171;-83
2023/12/18 03:54:36;;;;;;;21.77;12.37;;;;;;;;;;6207671;23;20172;-82
2023/12/18 03:57:07;;;;;;;26.77;10.83;;;;;;;;;;6207921;23;20168;-84
2023/12/18 03:59:40;;;;;;;8.77;6.77;;;;;;;;;;6208593;23;20170;-84
2023/12/18 04:02:13;;;;;;;15.40;8.97;;;;;;;;;;6209135;23;20202;-84
2023/12/18 04:04:44;;;;;;;5.70;4.73;;;;;;;;;;6211487;23;20240;-83
2023/12/18 04:07:18;;;;;;;10.63;6.07;;;;;;;;;;6209318;23;20170;-83
2023/12/18 04:09:51;;;;;;;13.53;6.73;;;;;;;;;;6210611;23;20279;-83
2023/12/18 04:12:23;;;;;;;10.97;6.40;;;;;;;;;;6209402;23;20237;-83
2023/12/18 04:14:53;;;;;;;9.57;6.53;;;;;;;;;;6210039;23;20214;-83
2023/12/18 04:17:24;;;;;;;9.40;5.57;;;;;;;;;;6209991;23;20171;-85
2023/12/18 04:19:56;;;;;;;12.20;7.33;;;;;;;;;;6214319;23;20167;-84
2023/12/18 04:22:25;;;;;;;8.20;6.57;;;;;;;;;;6217255;23;20199;-85
2023/12/18 04:25:00;;;;;;;12.13;7.13;;;;;;;;;;6218028;23;20171;-83
2023/12/18 04:27:31;;;;;;;13.47;6.33;;;;;;;;;;6210143;23;20624;-82
2023/12/18 04:30:06;;;;;;;9.83;6.60;;;;;;;;;;6214345;23;20198;-83
2023/12/18 04:32:36;;;;;;;10.57;5.93;;;;;;;;;;6208571;23;20249;-83
2023/12/18 04:35:09;;;;;;;14.80;7.63;;;;;;;;;;6210313;23;20562;-83
2023/12/18 04:37:41;;;;;;;18.50;7.53;;;;;;;;;;6207872;23;20703;-83
2023/12/18 04:40:12;;;;;;;11.00;5.93;;;;;;;;;;6209201;23;20241;-83
2023/12/18 04:42:45;;;;;;;10.87;6.53;;;;;;;;;;6207729;23;20293;-84
2023/12/18 04:45:16;;;;;;;6.93;5.67;;;;;;;;;;6209993;23;20166;-83
2023/12/18 04:47:47;;;;;;;12.97;6.67;;;;;;;;;;6207490;23;20700;-84
2023/12/18 04:50:16;;;;;;;9.80;7.97;;;;;;;;;;6207761;23;20565;-85
2023/12/18 04:52:51;;;;;;;13.73;7.77;;;;;;;;;;6207194;23;20171;-83
2023/12/18 04:55:29;;;;;;;14.70;7.40;;;;;;;;;;6205772;23;20167;-84
2023/12/18 04:57:58;;;;;;;14.97;6.17;;;;;;;;;;6207399;23;20484;-84
2023/12/18 05:00:28;;;;;;;10.80;7.20;;;;;;;;;;6207245;23;20263;-84
2023/12/18 05:03:01;;;;;;;14.13;6.53;;;;;;;;;;6208293;23;20209;-83
2023/12/18 05:05:34;;;;;;;12.63;7.00;;;;;;;;;;6209326;23;20168;-83
2023/12/18 05:08:06;;;;;;;11.37;7.27;;;;;;;;;;6207893;23;20243;-84
2023/12/18 05:10:41;;;;;;;15.33;7.13;;;;;;;;;;6208251;23;20171;-84
2023/12/18 05:13:13;;;;;;;15.03;8.37;;;;;;;;;;6210666;23;20174;-84
2023/12/18 05:15:46;;;;;;;10.27;6.53;;;;;;;;;;6215456;23;20246;-82
2023/12/18 05:18:20;;;;;;;10.67;6.20;;;;;;;;;;6218201;23;20164;-82
2023/12/18 05:20:57;;;;;;;13.07;7.27;;;;;;;;;;6218796;23;20242;-83
2023/12/18 05:23:30;;;;;;;11.30;6.47;;;;;;;;;;6209206;23;20220;-85
2023/12/18 05:26:00;;;;;;;9.83;6.20;;;;;;;;;;6208072;23;20163;-83
2023/12/18 05:28:34;;;;;;;15.50;7.27;;;;;;;;;;6207985;23;20709;-83
2023/12/18 05:31:04;;;;;;;16.10;7.67;;;;;;;;;;6208099;23;20262;-84
2023/12/18 05:33:39;;;;;;;10.10;4.90;;;;;;;;;;6209233;23;20187;-83
2023/12/18 05:36:15;;;;;;;9.80;5.70;;;;;;;;;;6208244;23;20899;-84
2023/12/18 05:38:44;;;;;;;9.73;5.87;;;;;;;;;;6206969;23;20170;-84
2023/12/18 05:41:19;;;;;;;10.67;7.00;;;;;;;;;;6207297;23;20325;-84
2023/12/18 05:43:49;;;;;;;15.07;7.13;;;;;;;;;;6206630;23;20225;-84
2023/12/18 05:46:21;;;;;;;11.30;6.83;;;;;;;;;;6208394;23;20442;-84
2023/12/18 05:48:57;;;;;;;13.73;6.33;;;;;;;;;;6209283;23;20159;-83
2023/12/18 05:51:29;;;;;;;9.90;6.87;;;;;;;;;;6207906;23;20218;-84
2023/12/18 05:54:03;;;;;;;11.57;6.93;;;;;;;;;;6209577;23;20171;-84
2023/12/18 05:56:34;;;;;;;15.17;8.20;;;;;;;;;;6206790;23;20679;-84
2023/12/18 05:59:05;;;;;;;18.80;8.87;;;;;;;;;;6208442;23;20179;-84
2023/12/18 06:01:40;;;;;;;15.43;7.20;;;;;;;;;;6208324;23;20229;-82
2023/12/18 06:04:10;;;;;;;9.30;7.93;;;;;;;;;;6209329;23;20256;-85
2023/12/18 06:06:39;;;;;;;14.80;7.87;;;;;;;;;;6208260;23;20175;-83
2023/12/18 06:09:08;;;;;;;13.50;7.53;;;;;;;;;;6208463;23;20201;-85
2023/12/18 06:11:41;;;;;;;16.53;6.67;;;;;;;;;;6207777;23;20610;-84
2023/12/18 06:14:12;;;;;;;8.83;6.10;;;;;;;;;;6208608;23;20163;-85
2023/12/18 06:16:46;;;;;;;14.43;7.63;;;;;;;;;;6206983;23;20207;-84
2023/12/18 06:19:19;;;;;;;12.30;8.70;;;;;;;;;;6209800;23;20178;-84
2023/12/18 06:21:50;;;;;;;14.73;8.90;;;;;;;;;;6207496;23;20175;-83
2023/12/18 06:24:20;;;;;;;21.87;9.80;;;;;;;;;;6207511;23;20282;-83
2023/12/18 06:26:49;;;;;;;24.13;10.17;;;;;;;;;;6207493;23;20167;-83
2023/12/18 06:29:18;;;;;;;24.80;10.40;;;;;;;;;;6206254;23;20242;-83
2023/12/18 06:31:50;;;;;;;16.13;9.17;;;;;;;;;;6208575;23;20175;-83
2023/12/18 06:34:22;;;;;;;25.57;10.50;;;;;;;;;;6213999;23;20258;-82
2023/12/18 06:36:54;;;;;;;12.97;9.53;;;;;;;;;;6208409;23;20174;-84
2023/12/18 06:39:26;;;;;;;24.90;10.87;;;;;;;;;;6209019;23;20163;-82
2023/12/18 06:41:56;;;;;;;18.23;10.37;;;;;;;;;;6208242;23;20186;-82
2023/12/18 06:44:28;;;;;;;21.37;11.10;;;;;;;;;;6207944;23;20226;-83
2023/12/18 06:47:03;;;;;;;22.57;10.70;;;;;;;;;;6205771;23;20172;-83
2023/12/18 06:49:36;;;;;;;29.33;11.57;;;;;;;;;;6209272;23;20265;-84
2023/12/18 06:52:07;;;;;;;21.53;11.27;;;;;;;;;;6206894;23;20198;-83
2023/12/18 06:54:38;;;;;;;22.90;11.93;;;;;;;;;;6207857;23;20671;-83
2023/12/18 06:57:10;;;;;;;23.43;10.83;;;;;;;;;;6208223;23;20156;-85
2023/12/18 06:59:41;;;;;;;25.07;12.43;;;;;;;;;;6208631;23;20180;-84
2023/12/18 07:02:12;;;;;;;30.87;12.70;;;;;;;;;;6207521;23;20507;-84
2023/12/18 07:04:41;;;;;;;32.53;15.70;;;;;;;;;;6207106;23;20198;-85
2023/12/18 07:07:12;;;;;;;30.83;13.97;;;;;;;;;;6202829;23;20199;-83
2023/12/18 07:09:42;;;;;;;22.23;13.30;;;;;;;;;;6204709;23;20194;-81
2023/12/18 07:12:12;;;;;;;25.23;14.03;;;;;;;;;;6206838;23;20534;-83
2023/12/18 07:14:41;;;;;;;29.90;13.87;;;;;;;;;;6204761;23;20215;-82
2023/12/18 07:17:10;;;;;;;30.50;14.60;;;;;;;;;;6197380;23;20254;-83
2023/12/18 07:19:40;;;;;;;35.93;15.87;;;;;;;;;;6214167;23;20740;-86
2023/12/18 07:22:12;;;;;;;35.47;15.70;;;;;;;;;;6203417;23;20214;-84
2023/12/18 07:24:41;;;;;;;20.83;12.73;;;;;;;;;;6208116;23;20712;-83
2023/12/18 07:27:09;;;;;;;22.23;12.43;;;;;;;;;;6205715;23;20171;-83
2023/12/18 07:29:39;;;;;;;18.77;10.43;;;;;;;;;;6206476;23;20594;-84
2023/12/18 07:32:12;;;;;;;19.50;10.60;;;;;;;;;;6206183;23;20253;-84
2023/12/18 07:34:45;;;;;;;23.03;12.07;;;;;;;;;;6206552;23;20206;-83
2023/12/18 07:37:18;;;;;;;22.60;11.47;;;;;;;;;;6204197;23;20199;-83
2023/12/18 07:39:48;;;;;;;20.67;10.97;;;;;;;;;;6209411;23;20596;-84
2023/12/18 07:42:25;;;;;;;26.27;13.17;;;;;;;;;;6207361;23;20860;-83
2023/12/18 07:45:00;;;;;;;21.33;12.40;;;;;;;;;;6208790;23;20703;-84
2023/12/18 07:47:33;;;;;;;27.90;14.17;;;;;;;;;;6208241;23;20186;-83
2023/12/18 07:50:04;;;;;;;20.63;12.67;;;;;;;;;;6217588;23;20218;-84
2023/12/18 07:52:35;;;;;;;18.23;11.63;;;;;;;;;;6219852;23;20163;-83
2023/12/18 07:55:07;;;;;;;27.43;12.03;;;;;;;;;;6211090;23;20168;-83
2023/12/18 07:57:40;;;;;;;21.77;10.87;;;;;;;;;;6217196;23;20178;-83
2023/12/18 08:00:13;;;;;;;21.20;10.33;;;;;;;;;;6210502;23;20171;-82
2023/12/18 08:02:43;;;;;;;21.40;10.90;;;;;;;;;;6211083;23;20164;-84
2023/12/18 08:05:16;;;;;;;23.93;13.53;;;;;;;;;;6208729;23;20171;-84
2023/12/18 08:07:49;;;;;;;29.27;15.60;;;;;;;;;;6210147;23;20174;-84
2023/12/18 08:10:21;;;;;;;32.93;15.87;;;;;;;;;;6211664;23;20178;-83
2023/12/18 08:12:51;;;;;;;29.57;15.97;;;;;;;;;;6208611;23;20171;-84
2023/12/18 08:15:22;;;;;;;26.60;15.50;;;;;;;;;;6208741;23;20227;-83
2023/12/18 08:17:54;;;;;;;31.17;15.53;;;;;;;;;;6211209;23;20167;-83
2023/12/18 08:20:24;;;;;;;31.80;15.50;;;;;;;;;;6210378;23;20163;-84
2023/12/18 08:22:53;;;;;;;27.03;15.50;;;;;;;;;;6210955;23;20198;-82
2023/12/18 08:25:38;;;;;;;29.13;14.80;;;;;;;;;;6214838;23;20731;-84
2023/12/18 08:28:17;;;;;;;31.30;15.93;;;;;;;;;;6216564;23;20171;-83
2023/12/18 08:30:47;;;;;;;29.03;15.57;;;;;;;;;;6214039;23;20270;-83
2023/12/18 08:33:17;;;;;;;30.83;15.73;;;;;;;;;;6215551;23;20200;-84
2023/12/18 08:35:51;;;;;;;33.27;17.00;;;;;;;;;;6215218;23;20182;-84
2023/12/18 08:38:29;;;;;;;36.13;18.07;;;;;;;;;;6221102;23;20167;-83
2023/12/18 08:41:02;;;;;;;33.93;17.23;;;;;;;;;;6218213;23;20235;-83
2023/12/18 08:43:32;;;;;;;30.57;17.03;;;;;;;;;;6223865;23;20195;-83
2023/12/18 08:46:09;;;;;;;34.90;15.83;;;;;;;;;;6224486;23;20151;-82
2023/12/18 08:48:48;;;;;;;30.67;17.40;;;;;;;;;;6221861;23;20186;-83
2023/12/18 08:51:52;;;;;;;31.97;16.83;;;;;;;;;;6225043;23;20214;-83
2023/12/18 08:54:24;;;;;;;33.77;19.57;;;;;;;;;;6216399;23;20394;-83
2023/12/18 08:56:56;;;;;;;34.13;18.00;;;;;;;;;;6214370;23;20191;-83
2023/12/18 08:59:26;;;;;;;35.97;18.90;;;;;;;;;;6215927;23;20537;-83
2023/12/18 09:01:58;;;;;;;38.93;20.87;;;;;;;;;;6213917;23;20179;-83
2023/12/18 09:04:29;;;;;;;41.03;21.63;;;;;;;;;;6212530;23;20202;-84
2023/12/18 09:07:03;;;;;;;44.10;23.27;;;;;;;;;;6213294;23;20237;-83
2023/12/18 09:09:39;;;;;;;48.43;24.97;;;;;;;;;;6214444;23;20225;-84
2023/12/18 09:12:08;;;;;;;50.10;25.23;;;;;;;;;;6212352;23;20631;-82
2023/12/18 09:14:39;;;;;;;49.10;25.87;;;;;;;;;;6214009;23;20242;-83
2023/12/18 09:17:12;;;;;;;46.67;22.77;;;;;;;;;;6213518;23;20187;-82
2023/12/18 09:19:43;;;;;;;46.73;23.83;;;;;;;;;;6211734;23;20181;-82
2023/12/18 09:22:18;;;;;;;56.53;27.70;;;;;;;;;;6212903;23;20194;-82
2023/12/18 09:24:46;;;;;;;54.80;27.73;;;;;;;;;;6214161;23;20203;-82
2023/12/18 09:27:18;;;;;;;47.73;25.00;;;;;;;;;;6212246;23;20195;-83
2023/12/18 09:29:45;;;;;;;52.60;25.90;;;;;;;;;;6214236;23;20209;-82
2023/12/18 09:32:15;;;;;;;54.77;28.07;;;;;;;;;;6213224;23;20219;-82
2023/12/18 09:34:44;;;;;;;55.53;25.60;;;;;;;;;;6213805;23;20179;-83
2023/12/18 09:37:16;;;;;;;41.03;23.13;;;;;;;;;;6211828;23;20164;-82
2023/12/18 09:39:47;;;;;;;38.73;20.57;;;;;;;;;;6212141;23;20194;-82
2023/12/18 09:42:19;;;;;;;42.80;20.03;;;;;;;;;;6209775;23;20170;-83
2023/12/18 09:44:52;;;;;;;34.10;18.67;;;;;;;;;;6213612;23;20193;-82
2023/12/18 09:47:25;;;;;;;43.70;19.33;;;;;;;;;;6210960;23;20182;-83
2023/12/18 09:49:58;;;;;;;39.47;19.23;;;;;;;;;;6212620;23;20195;-83
2023/12/18 09:52:30;;;;;;;39.10;19.73;;;;;;;;;;6212393;23;20213;-81
2023/12/18 09:55:04;;;;;;;36.73;19.87;;;;;;;;;;6210815;23;20226;-82
2023/12/18 09:57:36;;;;;;;29.03;16.57;;;;;;;;;;6212879;23;20163;-83
2023/12/18 10:00:11;;;;;;;34.47;17.27;;;;;;;;;;6213060;23;20187;-82
2023/12/18 10:02:43;;;;;;;30.17;15.97;;;;;;;;;;6214892;23;20171;-82
2023/12/18 10:05:16;;;;;;;33.57;15.23;;;;;;;;;;6212689;23;20203;-82
2023/12/18 10:11:05;;;;;;;25.57;13.33;;;;;;;;;;6228353;23;20239;-83
2023/12/18 10:13:37;;;;;;;27.30;15.07;;;;;;;;;;6224954;23;20168;-84
2023/12/18 10:16:10;;;;;;;24.73;13.67;;;;;;;;;;6213716;23;20201;-83
2023/12/18 10:18:44;;;;;;;29.03;15.27;;;;;;;;;;6213520;23;20174;-83
2023/12/18 10:21:29;;;;;;;27.13;15.97;;;;;;;;;;6224097;23;20235;-83
2023/12/18 10:24:02;;;;;;;26.90;16.00;;;;;;;;;;6214185;23;20202;-85
2023/12/18 10:26:50;;;;;;;25.83;15.57;;;;;;;;;;6212865;23;20169;-83
2023/12/18 10:29:19;;;;;;;30.97;17.70;;;;;;;;;;6219249;23;20182;-83
2023/12/18 10:31:49;;;;;;;35.77;19.63;;;;;;;;;;6214630;23;20204;-84
2023/12/18 10:34:21;;;;;;;40.10;20.93;;;;;;;;;;6218984;23;20223;-83
2023/12/18 10:36:52;;;;;;;33.57;16.87;;;;;;;;;;6214916;23;20181;-84
2023/12/18 10:42:25;;;;;;;28.33;15.37;;;;;;;;;;6181768;22;20216;-83
2023/12/18 10:44:54;;;;;;;28.87;15.83;;;;;;;;;;6187628;23;20204;-84
2023/12/18 10:47:44;;;;;;;27.03;14.30;;;;;;;;;;6185135;23;20622;-84
2023/12/18 10:53:27;;;;;;;30.33;15.37;;;;;;;;;;6095238;23;20640;-84
2023/12/18 10:56:03;;;;;;;28.20;14.70;;;;;;;;;;6183189;23;20178;-83
2023/12/18 10:58:56;;;;;;;28.23;15.10;;;;;;;;;;6186781;23;20229;-83
2023/12/18 11:01:43;;;;;;;26.00;14.20;;;;;;;;;;6187370;23;20478;-84
2023/12/18 11:04:18;;;;;;;21.27;11.50;;;;;;;;;;6160316;23;20673;-84
2023/12/18 11:06:53;;;;;;;19.43;11.13;;;;;;;;;;6179711;23;20172;-84
2023/12/18 11:09:23;;;;;;;20.30;10.20;;;;;;;;;;6182462;23;20179;-84
2023/12/18 11:11:52;;;;;;;18.97;11.47;;;;;;;;;;6179955;23;20170;-83
2023/12/18 11:14:27;;;;;;;19.57;10.30;;;;;;;;;;6182087;23;20547;-83
2023/12/18 11:17:05;;;;;;;18.53;9.70;;;;;;;;;;6180977;23;20168;-84
2023/12/18 11:19:39;;;;;;;27.53;9.10;;;;;;;;;;6181352;23;20171;-84
2023/12/18 11:22:07;;;;;;;20.67;9.57;;;;;;;;;;6182424;23;20773;-84
2023/12/18 11:24:42;;;;;;;19.40;9.43;;;;;;;;;;6180432;23;20205;-83
2023/12/18 11:27:15;;;;;;;15.67;8.40;;;;;;;;;;6181636;23;20261;-84
2023/12/18 11:29:48;;;;;;;11.43;6.93;;;;;;;;;;6185203;23;20627;-83
2023/12/18 11:35:35;;;;;;;8.30;6.33;;;;;;;;;;6181142;23;20175;-85
2023/12/18 11:38:24;;;;;;;8.87;5.73;;;;;;;;;;6181024;23;20525;-83
2023/12/18 11:41:01;;;;;;;11.33;6.07;;;;;;;;;;6186263;23;20688;-84
2023/12/18 11:43:41;;;;;;;7.20;5.37;;;;;;;;;;6214416;23;20168;-84
2023/12/18 11:46:10;;;;;;;8.70;5.60;;;;;;;;;;6210033;23;20244;-83
2023/12/18 11:48:42;;;;;;;9.70;6.03;;;;;;;;;;6212317;23;20570;-83
2023/12/18 11:51:12;;;;;;;7.93;5.70;;;;;;;;;;6213571;23;20168;-83
2023/12/18 11:53:43;;;;;;;7.23;5.50;;;;;;;;;;6211061;23;20233;-84
2023/12/18 11:56:18;;;;;;;9.30;5.17;;;;;;;;;;6211035;23;20182;-81
2023/12/18 11:58:59;;;;;;;9.67;4.70;;;;;;;;;;6210435;23;20478;-85
2023/12/18 12:01:32;;;;;;;6.57;4.93;;;;;;;;;;6208654;23;20249;-84
2023/12/18 12:04:03;;;;;;;6.10;5.17;;;;;;;;;;6207193;23;20192;-85
2023/12/18 12:06:36;;;;;;;8.90;5.70;;;;;;;;;;6205062;23;20171;-83
2023/12/18 12:09:08;;;;;;;5.70;4.07;;;;;;;;;;6204776;23;20227;-83
2023/12/18 12:11:49;;;;;;;4.30;3.97;;;;;;;;;;6204253;23;20168;-82
2023/12/18 12:14:28;;;;;;;5.03;3.70;;;;;;;;;;6205178;23;20284;-82
2023/12/18 12:17:04;;;;;;;5.53;4.30;;;;;;;;;;6203573;23;20498;-84
2023/12/18 12:19:39;;;;;;;7.97;4.37;;;;;;;;;;6206056;23;20283;-84
2023/12/18 12:22:12;;;;;;;3.40;3.10;;;;;;;;;;6205055;23;20163;-84
2023/12/18 12:24:42;;;;;;;5.17;4.17;;;;;;;;;;6205624;23;20252;-84
2023/12/18 12:27:21;;;;;;;3.90;3.57;;;;;;;;;;6207042;23;20589;-84
2023/12/18 12:30:25;;;;;;;5.77;4.37;;;;;;;;;;6207038;23;20159;-84
2023/12/18 12:33:08;;;;;;;7.10;4.30;;;;;;;;;;6206008;23;20293;-82
2023/12/18 12:35:44;;;;;;;3.53;3.23;;;;;;;;;;6208542;23;20207;-82
2023/12/18 12:38:13;;;;;;;5.30;4.47;;;;;;;;;;6207474;23;20195;-84
2023/12/18 12:40:46;;;;;;;4.07;3.00;;;;;;;;;;6205895;23;20199;-84
2023/12/18 12:43:18;;;;;;;3.27;3.07;;;;;;;;;;6207258;23;20175;-84
2023/12/18 12:45:49;;;;;;;2.50;2.30;;;;;;;;;;6206483;23;20200;-83
2023/12/18 12:48:19;;;;;;;3.53;2.23;;;;;;;;;;6206874;23;20174;-83
2023/12/18 12:50:47;;;;;;;3.27;2.27;;;;;;;;;;6206746;23;20230;-85
2023/12/18 12:53:23;;;;;;;4.13;2.50;;;;;;;;;;6206492;23;20579;-83
2023/12/18 12:55:58;;;;;;;3.47;2.70;;;;;;;;;;6206171;23;20708;-83
2023/12/18 12:58:34;;;;;;;4.83;2.93;;;;;;;;;;6207913;23;20178;-83
2023/12/18 13:01:08;;;;;;;4.77;3.30;;;;;;;;;;6205404;23;20629;-83
2023/12/18 13:03:36;;;;;;;7.67;3.57;;;;;;;;;;6213229;23;20244;-82
2023/12/18 13:06:08;;;;;;;4.40;3.60;;;;;;;;;;6210801;23;20744;-83
2023/12/18 13:08:41;;;;;;;5.60;4.97;;;;;;;;;;6213411;23;20189;-84
2023/12/18 13:11:24;;;;;;;5.63;4.43;;;;;;;;;;6219132;23;20623;-83
2023/12/18 13:14:00;;;;;;;5.90;4.30;;;;;;;;;;6220736;23;20244;-83
2023/12/18 13:16:32;;;;;;;4.77;3.63;;;;;;;;;;6217808;23;20163;-84
2023/12/18 13:19:04;;;;;;;3.67;3.10;;;;;;;;;;6221170;23;20239;-85
2023/12/18 13:21:37;;;;;;;2.33;2.10;;;;;;;;;;6214653;23;20195;-83
2023/12/18 13:24:08;;;;;;;6.53;4.00;;;;;;;;;;6209980;23;20221;-84
2023/12/18 13:26:38;;;;;;;5.77;3.40;;;;;;;;;;6208384;23;20355;-82
2023/12/18 13:29:11;;;;;;;3.47;3.17;;;;;;;;;;6211482;23;20171;-84
2023/12/18 13:31:41;;;;;;;5.97;4.70;;;;;;;;;;6210970;23;20258;-84
2023/12/18 13:34:11;;;;;;;6.63;3.77;;;;;;;;;;6210251;23;20167;-83
2023/12/18 13:36:42;;;;;;;3.20;3.00;;;;;;;;;;6208131;23;20845;-82
2023/12/18 13:39:16;;;;;;;10.73;3.07;;;;;;;;;;6209310;23;20652;-82
2023/12/18 13:41:47;;;;;;;3.10;2.77;;;;;;;;;;6209705;23;20195;-85
2023/12/18 13:44:20;;;;;;;6.03;3.43;;;;;;;;;;6209555;23;20163;-83
2023/12/18 13:46:52;;;;;;;4.47;3.37;;;;;;;;;;6206808;23;20191;-83
2023/12/18 13:49:21;;;;;;;7.13;3.70;;;;;;;;;;6208049;23;20295;-85
2023/12/18 13:51:53;;;;;;;6.93;4.30;;;;;;;;;;6208133;23;20172;-84
2023/12/18 13:54:28;;;;;;;14.13;8.97;;;;;;;;;;6209100;23;20629;-83
2023/12/18 13:57:00;;;;;;;6.97;5.30;;;;;;;;;;6208606;23;20175;-84
2023/12/18 13:59:31;;;;;;;9.77;5.33;;;;;;;;;;6209465;23;20160;-83
2023/12/18 14:02:01;;;;;;;7.73;6.20;;;;;;;;;;6209693;23;20187;-83
2023/12/18 14:04:33;;;;;;;9.43;6.70;;;;;;;;;;6210376;23;20517;-85
2023/12/18 14:07:04;;;;;;;12.33;7.33;;;;;;;;;;6208427;23;20188;-84
2023/12/18 14:09:36;;;;;;;8.00;6.17;;;;;;;;;;6209624;23;20244;-84
2023/12/18 14:12:07;;;;;;;8.23;5.37;;;;;;;;;;6208385;23;20176;-85
2023/12/18 14:14:37;;;;;;;12.30;6.10;;;;;;;;;;6207994;23;20202;-83
2023/12/18 14:17:07;;;;;;;14.37;6.13;;;;;;;;;;6208185;23;20254;-85
2023/12/18 14:19:38;;;;;;;9.83;6.47;;;;;;;;;;6211289;23;20174;-84
2023/12/18 14:22:09;;;;;;;8.73;6.10;;;;;;;;;;6207398;23;20639;-82
2023/12/18 14:24:39;;;;;;;7.93;4.83;;;;;;;;;;6209865;23;20168;-83
2023/12/18 14:27:09;;;;;;;6.70;4.90;;;;;;;;;;6208045;23;20627;-83
2023/12/18 14:29:40;;;;;;;5.70;5.17;;;;;;;;;;6207086;23;20172;-84
2023/12/18 14:32:16;;;;;;;6.23;4.60;;;;;;;;;;6208988;23;20206;-83
2023/12/18 14:34:49;;;;;;;8.30;4.93;;;;;;;;;;6211263;23;20237;-84
2023/12/18 14:37:22;;;;;;;4.97;4.33;;;;;;;;;;6210331;23;20524;-84
2023/12/18 14:39:55;;;;;;;7.17;5.27;;;;;;;;;;6208665;23;20186;-82
2023/12/18 14:42:25;;;;;;;9.37;5.60;;;;;;;;;;6212225;23;20703;-84
2023/12/18 14:44:58;;;;;;;9.17;5.33;;;;;;;;;;6208498;23;20163;-83
2023/12/18 14:47:28;;;;;;;6.27;5.20;;;;;;;;;;6207621;23;20170;-84
2023/12/18 14:49:57;;;;;;;10.13;4.73;;;;;;;;;;6209085;23;20195;-84
2023/12/18 14:52:27;;;;;;;4.17;3.63;;;;;;;;;;6204765;23;20665;-83
2023/12/18 14:54:57;;;;;;;5.40;4.43;;;;;;;;;;6205988;23;20221;-83
2023/12/18 14:57:33;;;;;;;5.23;4.73;;;;;;;;;;6206417;23;20164;-83
2023/12/18 15:00:06;;;;;;;9.30;5.30;;;;;;;;;;6212816;23;20171;-86
2023/12/18 15:02:38;;;;;;;14.57;7.30;;;;;;;;;;6213275;23;20167;-83
2023/12/18 15:05:12;;;;;;;9.73;5.23;;;;;;;;;;6212614;23;20177;-84
2023/12/18 15:07:42;;;;;;;7.27;5.17;;;;;;;;;;6210519;23;20668;-83
2023/12/18 15:10:12;;;;;;;9.60;4.97;;;;;;;;;;6212084;23;20178;-83
2023/12/18 15:12:41;;;;;;;6.40;4.87;;;;;;;;;;6214717;23;20218;-83
2023/12/18 15:15:12;;;;;;;11.50;5.17;;;;;;;;;;6209288;23;20221;-83
2023/12/18 15:17:42;;;;;;;8.40;4.97;;;;;;;;;;6210289;23;20159;-83